Time;durP1;ratioP1;P1;durP2;ratioP2;P2;SDS_P1;SDS_P2;PMS_P1;PMS_P2;Temp;Humidity;BMP_temperature;BMP_pressure;BME280_temperature;BME280_humidity;BME280_pressure;Samples;Min_cycle;Max_cycle;Signal;HPM_P1;HPM_P2
2022/10/27 02:08:03;;;;;;;0.6;0.6;;;;;;;15.0;100.0;101940;;;;
2022/10/27 02:09:10;;;;;;;0.6;0.6;;;;;;;15.1;100.0;101930;;;;
2022/10/27 02:10:04;;;;;;;0.6;0.6;;;;;;;15.1;100.0;101930;;;;
2022/10/27 02:11:04;;;;;;;0.6;0.6;;;;;;;15.1;100.0;101930;;;;
2022/10/27 02:12:03;;;;;;;0.6;0.6;;;;;;;15.1;100.0;101930;;;;
2022/10/27 02:13:02;;;;;;;0.6;0.6;;;;;;;15.1;100.0;101930;;;;
2022/10/27 02:14:00;;;;;;;0.6;0.6;;;;;;;15.1;100.0;101930;;;;
2022/10/27 02:15:01;;;;;;;0.6;0.6;;;;;;;15.2;100.0;101930;;;;
2022/10/27 02:16:04;;;;;;;0.6;0.6;;;;;;;15.2;100.0;101930;;;;
2022/10/27 02:17:01;;;;;;;0.6;0.6;;;;;;;15.1;100.0;101930;;;;
2022/10/27 02:18:03;;;;;;;0.6;0.6;;;;;;;15.1;100.0;101930;;;;
2022/10/27 02:19:04;;;;;;;0.6;0.6;;;;;;;15.1;100.0;101920;;;;
2022/10/27 02:20:02;;;;;;;0.6;0.6;;;;;;;15.1;100.0;101920;;;;
2022/10/27 02:21:05;;;;;;;0.6;0.6;;;;;;;15.2;100.0;101930;;;;
2022/10/27 02:22:01;;;;;;;0.6;0.6;;;;;;;15.2;100.0;101930;;;;
2022/10/27 02:23:02;;;;;;;0.6;0.6;;;;;;;15.1;100.0;101930;;;;
2022/10/27 02:24:00;;;;;;;0.6;0.6;;;;;;;15.1;100.0;101930;;;;
2022/10/27 02:25:00;;;;;;;0.6;0.6;;;;;;;15.2;100.0;101930;;;;
2022/10/27 02:26:10;;;;;;;0.6;0.6;;;;;;;15.2;100.0;101930;;;;
2022/10/27 02:27:03;;;;;;;0.6;0.6;;;;;;;15.1;100.0;101920;;;;
2022/10/27 02:28:02;;;;;;;0.8;0.8;;;;;;;15.1;100.0;101920;;;;
2022/10/27 02:29:01;;;;;;;0.8;0.8;;;;;;;15.1;100.0;101920;;;;
2022/10/27 02:30:02;;;;;;;0.8;0.8;;;;;;;15.1;100.0;101920;;;;
2022/10/27 02:31:00;;;;;;;0.8;0.8;;;;;;;15.1;100.0;101920;;;;
2022/10/27 02:32:02;;;;;;;0.8;0.8;;;;;;;15.1;100.0;101920;;;;
2022/10/27 02:33:00;;;;;;;0.8;0.8;;;;;;;15.2;100.0;101920;;;;
2022/10/27 02:34:00;;;;;;;0.8;0.8;;;;;;;15.2;100.0;101920;;;;
2022/10/27 02:35:00;;;;;;;0.8;0.8;;;;;;;15.1;100.0;101920;;;;
2022/10/27 02:36:00;;;;;;;0.8;0.8;;;;;;;15.1;100.0;101920;;;;
2022/10/27 02:37:00;;;;;;;0.8;0.8;;;;;;;15.1;100.0;101910;;;;
2022/10/27 02:38:00;;;;;;;0.8;0.8;;;;;;;15.1;100.0;101910;;;;
2022/10/27 02:39:00;;;;;;;0.8;0.8;;;;;;;15.1;100.0;101910;;;;
2022/10/27 02:40:00;;;;;;;0.8;0.8;;;;;;;15.1;100.0;101910;;;;
2022/10/27 02:41:00;;;;;;;0.8;0.8;;;;;;;15.0;100.0;101910;;;;
2022/10/27 02:42:01;;;;;;;0.8;0.8;;;;;;;15.0;100.0;101910;;;;
2022/10/27 02:43:00;;;;;;;0.8;0.8;;;;;;;15.0;100.0;101920;;;;
2022/10/27 02:44:00;;;;;;;0.8;0.8;;;;;;;15.0;100.0;101920;;;;
2022/10/27 02:45:00;;;;;;;0.8;0.8;;;;;;;14.9;100.0;101920;;;;
2022/10/27 02:46:00;;;;;;;0.8;0.8;;;;;;;14.9;100.0;101920;;;;
2022/10/27 02:47:02;;;;;;;0.8;0.8;;;;;;;15.1;100.0;101920;;;;
2022/10/27 02:48:00;;;;;;;0.8;0.8;;;;;;;15.1;100.0;101920;;;;
2022/10/27 02:49:00;;;;;;;0.8;0.8;;;;;;;15.2;100.0;101910;;;;
2022/10/27 02:50:00;;;;;;;0.8;0.8;;;;;;;15.2;100.0;101910;;;;
2022/10/27 02:51:00;;;;;;;0.8;0.8;;;;;;;15.0;100.0;101910;;;;
2022/10/27 02:52:03;;;;;;;0.8;0.8;;;;;;;15.0;100.0;101910;;;;
2022/10/27 02:53:00;;;;;;;0.8;0.8;;;;;;;15.1;100.0;101910;;;;
2022/10/27 02:54:00;;;;;;;0.8;0.8;;;;;;;15.1;100.0;101910;;;;
2022/10/27 02:55:00;;;;;;;0.8;0.8;;;;;;;15.0;100.0;101910;;;;
2022/10/27 02:56:00;;;;;;;0.8;0.8;;;;;;;15.0;100.0;101910;;;;
2022/10/27 02:57:00;;;;;;;0.8;0.8;;;;;;;15.1;100.0;101910;;;;
2022/10/27 02:58:00;;;;;;;0.8;0.8;;;;;;;15.1;100.0;101910;;;;
2022/10/27 02:59:00;;;;;;;0.8;0.8;;;;;;;15.1;100.0;101910;;;;
2022/10/27 03:00:00;;;;;;;0.8;0.8;;;;;;;15.1;100.0;101910;;;;
2022/10/27 03:01:00;;;;;;;0.8;0.8;;;;;;;15.1;100.0;101900;;;;
2022/10/27 03:02:00;;;;;;;0.8;0.8;;;;;;;15.1;100.0;101900;;;;
2022/10/27 03:03:01;;;;;;;0.8;0.8;;;;;;;14.9;100.0;101900;;;;
2022/10/27 03:04:00;;;;;;;0.8;0.8;;;;;;;14.9;100.0;101900;;;;
2022/10/27 03:05:02;;;;;;;0.8;0.8;;;;;;;14.9;100.0;101900;;;;
2022/10/27 03:06:00;;;;;;;0.8;0.8;;;;;;;14.9;100.0;101900;;;;
2022/10/27 03:07:00;;;;;;;0.8;0.8;;;;;;;14.9;100.0;101900;;;;
2022/10/27 03:08:00;;;;;;;0.5;0.5;;;;;;;14.9;100.0;101900;;;;
2022/10/27 03:09:00;;;;;;;0.5;0.5;;;;;;;14.9;100.0;101900;;;;
2022/10/27 03:10:00;;;;;;;0.5;0.5;;;;;;;14.9;100.0;101900;;;;
2022/10/27 03:11:00;;;;;;;0.5;0.5;;;;;;;14.7;100.0;101900;;;;
2022/10/27 03:12:00;;;;;;;0.5;0.5;;;;;;;14.7;100.0;101900;;;;
2022/10/27 03:13:00;;;;;;;0.5;0.5;;;;;;;14.8;100.0;101900;;;;
2022/10/27 03:14:00;;;;;;;0.5;0.5;;;;;;;14.8;100.0;101900;;;;
2022/10/27 03:15:00;;;;;;;0.5;0.5;;;;;;;14.9;100.0;101900;;;;
2022/10/27 03:16:00;;;;;;;0.5;0.5;;;;;;;14.9;100.0;101900;;;;
2022/10/27 03:17:00;;;;;;;0.5;0.5;;;;;;;14.8;100.0;101900;;;;
2022/10/27 03:18:00;;;;;;;0.5;0.5;;;;;;;14.8;100.0;101900;;;;
2022/10/27 03:19:00;;;;;;;0.5;0.5;;;;;;;14.8;100.0;101900;;;;
2022/10/27 03:20:00;;;;;;;0.5;0.5;;;;;;;14.8;100.0;101900;;;;
2022/10/27 03:21:00;;;;;;;0.5;0.5;;;;;;;14.9;100.0;101900;;;;
2022/10/27 03:22:00;;;;;;;0.5;0.5;;;;;;;14.9;100.0;101900;;;;
2022/10/27 03:23:00;;;;;;;0.5;0.5;;;;;;;14.9;100.0;101890;;;;
2022/10/27 03:24:00;;;;;;;0.5;0.5;;;;;;;14.9;100.0;101890;;;;
2022/10/27 03:25:00;;;;;;;0.5;0.5;;;;;;;14.8;100.0;101890;;;;
2022/10/27 03:26:00;;;;;;;0.5;0.5;;;;;;;14.8;100.0;101890;;;;
2022/10/27 03:27:00;;;;;;;0.5;0.5;;;;;;;14.7;100.0;101890;;;;
2022/10/27 03:28:00;;;;;;;1.7;1.6;;;;;;;14.7;100.0;101890;;;;
2022/10/27 03:29:00;;;;;;;1.7;1.6;;;;;;;14.7;100.0;101890;;;;
2022/10/27 03:30:00;;;;;;;1.7;1.6;;;;;;;14.7;100.0;101890;;;;
2022/10/27 03:31:00;;;;;;;1.7;1.6;;;;;;;14.9;100.0;101890;;;;
2022/10/27 03:32:00;;;;;;;1.7;1.6;;;;;;;14.9;100.0;101890;;;;
2022/10/27 03:33:00;;;;;;;1.7;1.6;;;;;;;14.8;100.0;101880;;;;
2022/10/27 03:34:00;;;;;;;1.7;1.6;;;;;;;14.8;100.0;101880;;;;
2022/10/27 03:35:00;;;;;;;1.7;1.6;;;;;;;14.7;100.0;101890;;;;
2022/10/27 03:36:00;;;;;;;1.7;1.6;;;;;;;14.7;100.0;101890;;;;
2022/10/27 03:37:00;;;;;;;1.7;1.6;;;;;;;14.7;100.0;101880;;;;
2022/10/27 03:38:00;;;;;;;1.7;1.6;;;;;;;14.7;100.0;101880;;;;
2022/10/27 03:39:00;;;;;;;1.7;1.6;;;;;;;14.8;100.0;101880;;;;
2022/10/27 03:40:00;;;;;;;1.7;1.6;;;;;;;14.8;100.0;101880;;;;
2022/10/27 03:41:00;;;;;;;1.7;1.6;;;;;;;14.7;100.0;101890;;;;
2022/10/27 03:42:00;;;;;;;1.7;1.6;;;;;;;14.7;100.0;101890;;;;
2022/10/27 03:43:00;;;;;;;1.7;1.6;;;;;;;14.6;100.0;101880;;;;
2022/10/27 03:44:00;;;;;;;1.7;1.6;;;;;;;14.6;100.0;101880;;;;
2022/10/27 03:45:00;;;;;;;1.7;1.6;;;;;;;14.6;100.0;101890;;;;
2022/10/27 03:46:01;;;;;;;1.7;1.6;;;;;;;14.6;100.0;101890;;;;
2022/10/27 03:47:00;;;;;;;1.7;1.6;;;;;;;14.5;100.0;101890;;;;
2022/10/27 03:48:01;;;;;;;0.7;0.7;;;;;;;14.5;100.0;101890;;;;
2022/10/27 03:49:00;;;;;;;0.7;0.7;;;;;;;14.6;100.0;101890;;;;
2022/10/27 03:50:00;;;;;;;0.7;0.7;;;;;;;14.6;100.0;101890;;;;
2022/10/27 03:51:00;;;;;;;0.7;0.7;;;;;;;14.5;100.0;101880;;;;
2022/10/27 03:52:00;;;;;;;0.7;0.7;;;;;;;14.5;100.0;101880;;;;
2022/10/27 03:53:02;;;;;;;0.7;0.7;;;;;;;14.5;100.0;101890;;;;
2022/10/27 03:54:00;;;;;;;0.7;0.7;;;;;;;14.5;100.0;101890;;;;
2022/10/27 03:55:00;;;;;;;0.7;0.7;;;;;;;14.4;100.0;101880;;;;
2022/10/27 03:56:00;;;;;;;0.7;0.7;;;;;;;14.4;100.0;101880;;;;
2022/10/27 03:57:00;;;;;;;0.7;0.7;;;;;;;14.4;100.0;101880;;;;
2022/10/27 03:58:00;;;;;;;0.7;0.7;;;;;;;14.4;100.0;101880;;;;
2022/10/27 03:59:00;;;;;;;0.7;0.7;;;;;;;14.4;100.0;101880;;;;
2022/10/27 04:00:00;;;;;;;0.7;0.7;;;;;;;14.4;100.0;101880;;;;
2022/10/27 04:01:01;;;;;;;0.7;0.7;;;;;;;14.4;100.0;101870;;;;
2022/10/27 04:02:04;;;;;;;0.7;0.7;;;;;;;14.4;100.0;101870;;;;
2022/10/27 04:03:00;;;;;;;0.7;0.7;;;;;;;14.4;100.0;101870;;;;
2022/10/27 04:04:00;;;;;;;0.7;0.7;;;;;;;14.4;100.0;101870;;;;
2022/10/27 04:05:00;;;;;;;0.7;0.7;;;;;;;14.4;100.0;101870;;;;
2022/10/27 04:06:00;;;;;;;0.7;0.7;;;;;;;14.4;100.0;101870;;;;
2022/10/27 04:07:00;;;;;;;0.7;0.7;;;;;;;14.4;100.0;101870;;;;
2022/10/27 04:08:00;;;;;;;2.0;1.9;;;;;;;14.4;100.0;101870;;;;
2022/10/27 04:09:00;;;;;;;2.0;1.9;;;;;;;14.3;100.0;101880;;;;
2022/10/27 04:10:00;;;;;;;2.0;1.9;;;;;;;14.3;100.0;101880;;;;
2022/10/27 04:11:00;;;;;;;2.0;1.9;;;;;;;14.2;100.0;101870;;;;
2022/10/27 04:12:00;;;;;;;2.0;1.9;;;;;;;14.2;100.0;101870;;;;
2022/10/27 04:13:00;;;;;;;2.0;1.9;;;;;;;14.4;100.0;101880;;;;
2022/10/27 04:14:00;;;;;;;2.0;1.9;;;;;;;14.4;100.0;101880;;;;
2022/10/27 04:15:00;;;;;;;2.0;1.9;;;;;;;14.4;100.0;101880;;;;
2022/10/27 04:16:00;;;;;;;2.0;1.9;;;;;;;14.4;100.0;101880;;;;
2022/10/27 04:17:00;;;;;;;2.0;1.9;;;;;;;14.5;100.0;101880;;;;
2022/10/27 04:18:00;;;;;;;2.0;1.9;;;;;;;14.5;100.0;101880;;;;
2022/10/27 04:19:00;;;;;;;2.0;1.9;;;;;;;14.4;100.0;101880;;;;
2022/10/27 04:20:00;;;;;;;2.0;1.9;;;;;;;14.4;100.0;101880;;;;
2022/10/27 04:21:01;;;;;;;2.0;1.9;;;;;;;14.4;100.0;101880;;;;
2022/10/27 04:22:00;;;;;;;2.0;1.9;;;;;;;14.4;100.0;101880;;;;
2022/10/27 04:23:00;;;;;;;2.0;1.9;;;;;;;14.2;100.0;101880;;;;
2022/10/27 04:24:00;;;;;;;2.0;1.9;;;;;;;14.2;100.0;101880;;;;
2022/10/27 04:25:00;;;;;;;2.0;1.9;;;;;;;14.3;100.0;101890;;;;
2022/10/27 04:26:00;;;;;;;2.0;1.9;;;;;;;14.3;100.0;101890;;;;
2022/10/27 04:27:00;;;;;;;2.0;1.9;;;;;;;14.3;100.0;101890;;;;
2022/10/27 04:28:01;;;;;;;0.5;0.5;;;;;;;14.3;100.0;101890;;;;
2022/10/27 04:29:00;;;;;;;0.5;0.5;;;;;;;14.3;100.0;101890;;;;
2022/10/27 04:30:00;;;;;;;0.5;0.5;;;;;;;14.3;100.0;101890;;;;
2022/10/27 04:31:00;;;;;;;0.5;0.5;;;;;;;14.3;100.0;101890;;;;
2022/10/27 04:32:00;;;;;;;0.5;0.5;;;;;;;14.3;100.0;101890;;;;
2022/10/27 04:33:00;;;;;;;0.5;0.5;;;;;;;14.4;100.0;101880;;;;
2022/10/27 04:34:00;;;;;;;0.5;0.5;;;;;;;14.4;100.0;101880;;;;
2022/10/27 04:35:00;;;;;;;0.5;0.5;;;;;;;14.2;100.0;101890;;;;
2022/10/27 04:36:00;;;;;;;0.5;0.5;;;;;;;14.2;100.0;101890;;;;
2022/10/27 04:37:00;;;;;;;0.5;0.5;;;;;;;14.1;100.0;101890;;;;
2022/10/27 04:38:00;;;;;;;0.5;0.5;;;;;;;14.1;100.0;101890;;;;
2022/10/27 04:39:00;;;;;;;0.5;0.5;;;;;;;14.1;100.0;101890;;;;
2022/10/27 04:40:00;;;;;;;0.5;0.5;;;;;;;14.1;100.0;101890;;;;
2022/10/27 04:41:00;;;;;;;0.5;0.5;;;;;;;14.0;100.0;101890;;;;
2022/10/27 04:42:00;;;;;;;0.5;0.5;;;;;;;14.0;100.0;101890;;;;
2022/10/27 04:43:00;;;;;;;0.5;0.5;;;;;;;14.0;100.0;101900;;;;
2022/10/27 04:44:00;;;;;;;0.5;0.5;;;;;;;14.0;100.0;101900;;;;
2022/10/27 04:45:00;;;;;;;0.5;0.5;;;;;;;13.9;100.0;101900;;;;
2022/10/27 04:46:00;;;;;;;0.5;0.5;;;;;;;13.9;100.0;101900;;;;
2022/10/27 04:47:00;;;;;;;0.4;0.4;;;;;;;14.1;100.0;101900;;;;
2022/10/27 04:48:00;;;;;;;0.4;0.4;;;;;;;14.1;100.0;101900;;;;
2022/10/27 04:49:00;;;;;;;0.4;0.4;;;;;;;14.0;100.0;101900;;;;
2022/10/27 04:50:00;;;;;;;0.4;0.4;;;;;;;14.0;100.0;101900;;;;
2022/10/27 04:51:00;;;;;;;0.4;0.4;;;;;;;13.9;100.0;101910;;;;
2022/10/27 04:52:00;;;;;;;0.4;0.4;;;;;;;13.9;100.0;101910;;;;
2022/10/27 04:53:01;;;;;;;0.4;0.4;;;;;;;13.9;100.0;101910;;;;
2022/10/27 04:54:00;;;;;;;0.4;0.4;;;;;;;13.9;100.0;101910;;;;
2022/10/27 04:55:00;;;;;;;0.4;0.4;;;;;;;13.7;100.0;101910;;;;
2022/10/27 04:56:00;;;;;;;0.4;0.4;;;;;;;13.7;100.0;101910;;;;
2022/10/27 04:57:00;;;;;;;0.4;0.4;;;;;;;13.7;100.0;101910;;;;
2022/10/27 04:58:03;;;;;;;0.4;0.4;;;;;;;13.7;100.0;101910;;;;
2022/10/27 04:59:00;;;;;;;0.4;0.4;;;;;;;13.9;100.0;101910;;;;
2022/10/27 05:00:00;;;;;;;0.4;0.4;;;;;;;13.9;100.0;101910;;;;
2022/10/27 05:01:04;;;;;;;0.4;0.4;;;;;;;13.9;100.0;101900;;;;
2022/10/27 05:02:00;;;;;;;0.4;0.4;;;;;;;13.9;100.0;101900;;;;
2022/10/27 05:03:00;;;;;;;0.4;0.4;;;;;;;14.0;100.0;101900;;;;
2022/10/27 05:04:00;;;;;;;0.4;0.4;;;;;;;14.0;100.0;101900;;;;
2022/10/27 05:05:00;;;;;;;0.4;0.4;;;;;;;13.7;100.0;101910;;;;
2022/10/27 05:06:00;;;;;;;0.4;0.4;;;;;;;13.7;100.0;101910;;;;
2022/10/27 05:07:00;;;;;;;0.6;0.6;;;;;;;13.9;100.0;101910;;;;
2022/10/27 05:08:01;;;;;;;0.6;0.6;;;;;;;13.9;100.0;101910;;;;
2022/10/27 05:09:00;;;;;;;0.6;0.6;;;;;;;13.8;100.0;101910;;;;
2022/10/27 05:10:00;;;;;;;0.6;0.6;;;;;;;13.8;100.0;101910;;;;
2022/10/27 05:11:00;;;;;;;0.6;0.6;;;;;;;13.9;100.0;101910;;;;
2022/10/27 05:12:00;;;;;;;0.6;0.6;;;;;;;13.9;100.0;101910;;;;
2022/10/27 05:13:00;;;;;;;0.6;0.6;;;;;;;13.9;100.0;101900;;;;
2022/10/27 05:14:00;;;;;;;0.6;0.6;;;;;;;13.9;100.0;101900;;;;
2022/10/27 05:15:00;;;;;;;0.6;0.6;;;;;;;13.8;100.0;101900;;;;
2022/10/27 05:16:00;;;;;;;0.6;0.6;;;;;;;13.8;100.0;101900;;;;
2022/10/27 05:17:00;;;;;;;0.6;0.6;;;;;;;13.6;100.0;101900;;;;
2022/10/27 05:18:00;;;;;;;0.6;0.6;;;;;;;13.6;100.0;101900;;;;
2022/10/27 05:19:00;;;;;;;0.6;0.6;;;;;;;13.7;100.0;101900;;;;
2022/10/27 05:20:00;;;;;;;0.6;0.6;;;;;;;13.7;100.0;101900;;;;
2022/10/27 05:21:00;;;;;;;0.6;0.6;;;;;;;13.7;100.0;101900;;;;
2022/10/27 05:22:00;;;;;;;0.6;0.6;;;;;;;13.7;100.0;101900;;;;
2022/10/27 05:23:00;;;;;;;0.6;0.6;;;;;;;13.8;100.0;101890;;;;
2022/10/27 05:24:00;;;;;;;0.6;0.6;;;;;;;13.8;100.0;101890;;;;
2022/10/27 05:25:00;;;;;;;0.6;0.6;;;;;;;13.8;100.0;101890;;;;
2022/10/27 05:26:00;;;;;;;0.6;0.6;;;;;;;13.8;100.0;101890;;;;
2022/10/27 05:27:00;;;;;;;0.5;0.5;;;;;;;13.8;100.0;101900;;;;
2022/10/27 05:28:02;;;;;;;0.5;0.5;;;;;;;13.8;100.0;101900;;;;
2022/10/27 05:29:00;;;;;;;0.5;0.5;;;;;;;13.8;100.0;101900;;;;
2022/10/27 05:30:00;;;;;;;0.5;0.5;;;;;;;13.8;100.0;101900;;;;
2022/10/27 05:31:01;;;;;;;0.5;0.5;;;;;;;13.7;100.0;101890;;;;
2022/10/27 05:32:00;;;;;;;0.5;0.5;;;;;;;13.7;100.0;101890;;;;
2022/10/27 05:33:00;;;;;;;0.5;0.5;;;;;;;13.8;100.0;101900;;;;
2022/10/27 05:34:00;;;;;;;0.5;0.5;;;;;;;13.8;100.0;101900;;;;
2022/10/27 05:35:00;;;;;;;0.5;0.5;;;;;;;13.7;100.0;101890;;;;
2022/10/27 05:36:00;;;;;;;0.5;0.5;;;;;;;13.7;100.0;101890;;;;
2022/10/27 05:37:00;;;;;;;0.5;0.5;;;;;;;13.8;100.0;101890;;;;
2022/10/27 05:38:00;;;;;;;0.5;0.5;;;;;;;13.8;100.0;101890;;;;
2022/10/27 05:39:00;;;;;;;0.5;0.5;;;;;;;13.8;100.0;101890;;;;
2022/10/27 05:40:00;;;;;;;0.5;0.5;;;;;;;13.8;100.0;101890;;;;
2022/10/27 05:41:00;;;;;;;0.5;0.5;;;;;;;13.8;100.0;101890;;;;
2022/10/27 05:42:00;;;;;;;0.5;0.5;;;;;;;13.8;100.0;101890;;;;
2022/10/27 05:43:01;;;;;;;0.5;0.5;;;;;;;13.8;100.0;101890;;;;
2022/10/27 05:44:00;;;;;;;0.5;0.5;;;;;;;13.8;100.0;101890;;;;
2022/10/27 05:45:00;;;;;;;0.5;0.5;;;;;;;13.9;100.0;101890;;;;
2022/10/27 05:46:00;;;;;;;0.5;0.5;;;;;;;13.9;100.0;101890;;;;
2022/10/27 05:47:00;;;;;;;0.5;0.5;;;;;;;14.0;100.0;101890;;;;
2022/10/27 05:48:02;;;;;;;0.5;0.5;;;;;;;14.0;100.0;101890;;;;
2022/10/27 05:49:00;;;;;;;0.5;0.5;;;;;;;14.0;100.0;101890;;;;
2022/10/27 05:50:00;;;;;;;0.5;0.5;;;;;;;14.0;100.0;101890;;;;
2022/10/27 05:51:00;;;;;;;0.5;0.5;;;;;;;13.9;100.0;101900;;;;
2022/10/27 05:52:00;;;;;;;0.5;0.5;;;;;;;13.9;100.0;101900;;;;
2022/10/27 05:53:00;;;;;;;0.5;0.5;;;;;;;13.8;100.0;101900;;;;
2022/10/27 05:54:00;;;;;;;0.5;0.5;;;;;;;13.8;100.0;101900;;;;
2022/10/27 05:55:00;;;;;;;0.5;0.5;;;;;;;13.9;100.0;101890;;;;
2022/10/27 05:56:00;;;;;;;0.5;0.5;;;;;;;13.9;100.0;101890;;;;
2022/10/27 05:57:00;;;;;;;0.5;0.5;;;;;;;13.8;100.0;101890;;;;
2022/10/27 05:58:01;;;;;;;0.5;0.5;;;;;;;13.8;100.0;101890;;;;
2022/10/27 05:59:00;;;;;;;0.5;0.5;;;;;;;13.8;100.0;101890;;;;
2022/10/27 06:00:00;;;;;;;0.5;0.5;;;;;;;13.8;100.0;101890;;;;
2022/10/27 06:01:00;;;;;;;0.5;0.5;;;;;;;13.8;100.0;101890;;;;
2022/10/27 06:02:00;;;;;;;0.5;0.5;;;;;;;13.8;100.0;101890;;;;
2022/10/27 06:03:01;;;;;;;0.5;0.5;;;;;;;13.7;100.0;101890;;;;
2022/10/27 06:04:00;;;;;;;0.5;0.5;;;;;;;13.7;100.0;101890;;;;
2022/10/27 06:05:00;;;;;;;0.5;0.5;;;;;;;13.8;100.0;101890;;;;
2022/10/27 06:06:02;;;;;;;0.5;0.5;;;;;;;13.8;100.0;101890;;;;
2022/10/27 06:07:00;;;;;;;0.6;0.6;;;;;;;13.7;100.0;101890;;;;
2022/10/27 06:08:00;;;;;;;0.6;0.6;;;;;;;13.7;100.0;101890;;;;
2022/10/27 06:09:00;;;;;;;0.6;0.6;;;;;;;13.7;100.0;101890;;;;
2022/10/27 06:10:00;;;;;;;0.6;0.6;;;;;;;13.7;100.0;101890;;;;
2022/10/27 06:11:01;;;;;;;0.6;0.6;;;;;;;13.6;100.0;101890;;;;
2022/10/27 06:12:00;;;;;;;0.6;0.6;;;;;;;13.6;100.0;101890;;;;
2022/10/27 06:13:01;;;;;;;0.6;0.6;;;;;;;13.7;100.0;101890;;;;
2022/10/27 06:14:00;;;;;;;0.6;0.6;;;;;;;13.7;100.0;101890;;;;
2022/10/27 06:15:00;;;;;;;0.6;0.6;;;;;;;13.8;100.0;101890;;;;
2022/10/27 06:16:00;;;;;;;0.6;0.6;;;;;;;13.8;100.0;101890;;;;
2022/10/27 06:17:00;;;;;;;0.6;0.6;;;;;;;13.8;100.0;101890;;;;
2022/10/27 06:18:00;;;;;;;0.6;0.6;;;;;;;13.8;100.0;101890;;;;
2022/10/27 06:19:00;;;;;;;0.6;0.6;;;;;;;13.8;100.0;101890;;;;
2022/10/27 06:20:00;;;;;;;0.6;0.6;;;;;;;13.8;100.0;101890;;;;
2022/10/27 06:21:00;;;;;;;0.6;0.6;;;;;;;13.9;100.0;101890;;;;
2022/10/27 06:22:00;;;;;;;0.6;0.6;;;;;;;13.9;100.0;101890;;;;
2022/10/27 06:23:00;;;;;;;0.6;0.6;;;;;;;13.8;100.0;101880;;;;
2022/10/27 06:24:00;;;;;;;0.6;0.6;;;;;;;13.8;100.0;101880;;;;
2022/10/27 06:25:00;;;;;;;0.6;0.6;;;;;;;13.7;100.0;101880;;;;
2022/10/27 06:26:00;;;;;;;0.6;0.6;;;;;;;13.7;100.0;101880;;;;
2022/10/27 06:27:00;;;;;;;0.5;0.5;;;;;;;13.9;100.0;101870;;;;
2022/10/27 06:28:00;;;;;;;0.5;0.5;;;;;;;13.9;100.0;101870;;;;
2022/10/27 06:29:00;;;;;;;0.5;0.5;;;;;;;13.9;100.0;101870;;;;
2022/10/27 06:30:00;;;;;;;0.5;0.5;;;;;;;13.9;100.0;101870;;;;
2022/10/27 06:31:00;;;;;;;0.5;0.5;;;;;;;13.8;100.0;101870;;;;
2022/10/27 06:32:00;;;;;;;0.5;0.5;;;;;;;13.8;100.0;101870;;;;
2022/10/27 06:33:00;;;;;;;0.5;0.5;;;;;;;13.7;100.0;101870;;;;
2022/10/27 06:34:00;;;;;;;0.5;0.5;;;;;;;13.7;100.0;101870;;;;
2022/10/27 06:35:00;;;;;;;0.5;0.5;;;;;;;13.7;100.0;101880;;;;
2022/10/27 06:36:00;;;;;;;0.5;0.5;;;;;;;13.7;100.0;101880;;;;
2022/10/27 06:37:02;;;;;;;0.5;0.5;;;;;;;13.6;100.0;101880;;;;
2022/10/27 06:38:00;;;;;;;0.5;0.5;;;;;;;13.6;100.0;101880;;;;
2022/10/27 06:39:00;;;;;;;0.5;0.5;;;;;;;13.8;100.0;101880;;;;
2022/10/27 06:40:00;;;;;;;0.5;0.5;;;;;;;13.8;100.0;101880;;;;
2022/10/27 06:41:00;;;;;;;0.5;0.5;;;;;;;13.8;100.0;101880;;;;
2022/10/27 06:42:00;;;;;;;0.5;0.5;;;;;;;13.8;100.0;101880;;;;
2022/10/27 06:43:08;;;;;;;0.5;0.5;;;;;;;13.8;100.0;101880;;;;
2022/10/27 06:44:00;;;;;;;0.5;0.5;;;;;;;13.8;100.0;101880;;;;
2022/10/27 06:45:00;;;;;;;0.5;0.5;;;;;;;13.9;100.0;101880;;;;
2022/10/27 06:46:02;;;;;;;0.5;0.5;;;;;;;13.9;100.0;101880;;;;
2022/10/27 06:47:00;;;;;;;0.5;0.5;;;;;;;14.0;100.0;101870;;;;
2022/10/27 06:48:01;;;;;;;0.5;0.5;;;;;;;14.0;100.0;101870;;;;
2022/10/27 06:49:00;;;;;;;0.5;0.5;;;;;;;14.0;100.0;101870;;;;
2022/10/27 06:50:00;;;;;;;0.5;0.5;;;;;;;14.0;100.0;101870;;;;
2022/10/27 06:51:00;;;;;;;0.5;0.5;;;;;;;14.1;100.0;101870;;;;
2022/10/27 06:52:00;;;;;;;0.5;0.5;;;;;;;14.1;100.0;101870;;;;
2022/10/27 06:53:00;;;;;;;0.5;0.5;;;;;;;14.0;100.0;101870;;;;
2022/10/27 06:54:00;;;;;;;0.5;0.5;;;;;;;14.0;100.0;101870;;;;
2022/10/27 06:55:00;;;;;;;0.5;0.5;;;;;;;14.0;100.0;101870;;;;
2022/10/27 06:56:00;;;;;;;0.5;0.5;;;;;;;14.0;100.0;101870;;;;
2022/10/27 06:57:00;;;;;;;0.5;0.5;;;;;;;13.9;100.0;101870;;;;
2022/10/27 06:58:00;;;;;;;0.5;0.5;;;;;;;13.9;100.0;101870;;;;
2022/10/27 06:59:00;;;;;;;0.5;0.5;;;;;;;14.0;100.0;101860;;;;
2022/10/27 07:00:00;;;;;;;0.5;0.5;;;;;;;14.0;100.0;101860;;;;
2022/10/27 07:01:00;;;;;;;0.5;0.5;;;;;;;14.0;100.0;101870;;;;
2022/10/27 07:02:01;;;;;;;0.5;0.5;;;;;;;14.0;100.0;101870;;;;
2022/10/27 07:03:05;;;;;;;0.5;0.5;;;;;;;13.8;100.0;101870;;;;
2022/10/27 07:04:00;;;;;;;0.5;0.5;;;;;;;13.8;100.0;101870;;;;
2022/10/27 07:05:00;;;;;;;0.5;0.5;;;;;;;14.0;100.0;101870;;;;
2022/10/27 07:06:00;;;;;;;0.5;0.5;;;;;;;14.0;100.0;101870;;;;
2022/10/27 07:07:00;;;;;;;0.7;0.7;;;;;;;14.0;100.0;101870;;;;
2022/10/27 07:08:00;;;;;;;0.7;0.7;;;;;;;14.0;100.0;101870;;;;
2022/10/27 07:09:03;;;;;;;0.7;0.7;;;;;;;14.0;100.0;101860;;;;
2022/10/27 07:10:00;;;;;;;0.7;0.7;;;;;;;14.0;100.0;101860;;;;
2022/10/27 07:11:00;;;;;;;0.7;0.7;;;;;;;13.9;100.0;101860;;;;
2022/10/27 07:12:00;;;;;;;0.7;0.7;;;;;;;13.9;100.0;101860;;;;
2022/10/27 07:13:00;;;;;;;0.7;0.7;;;;;;;14.0;100.0;101860;;;;
2022/10/27 07:14:00;;;;;;;0.7;0.7;;;;;;;14.0;100.0;101860;;;;
2022/10/27 07:15:00;;;;;;;0.7;0.7;;;;;;;14.1;100.0;101860;;;;
2022/10/27 07:16:00;;;;;;;0.7;0.7;;;;;;;14.1;100.0;101860;;;;
2022/10/27 07:17:00;;;;;;;0.7;0.7;;;;;;;14.0;100.0;101860;;;;
2022/10/27 07:18:02;;;;;;;0.7;0.7;;;;;;;14.0;100.0;101860;;;;
2022/10/27 07:19:00;;;;;;;0.7;0.7;;;;;;;14.1;100.0;101850;;;;
2022/10/27 07:20:00;;;;;;;0.7;0.7;;;;;;;14.1;100.0;101850;;;;
2022/10/27 07:21:00;;;;;;;0.7;0.7;;;;;;;14.1;100.0;101860;;;;
2022/10/27 07:22:00;;;;;;;0.7;0.7;;;;;;;14.1;100.0;101860;;;;
2022/10/27 07:23:00;;;;;;;0.7;0.7;;;;;;;14.0;100.0;101860;;;;
2022/10/27 07:24:00;;;;;;;0.7;0.7;;;;;;;14.0;100.0;101860;;;;
2022/10/27 07:25:00;;;;;;;0.7;0.7;;;;;;;14.1;100.0;101860;;;;
2022/10/27 07:26:00;;;;;;;0.7;0.7;;;;;;;14.1;100.0;101860;;;;
2022/10/27 07:27:00;;;;;;;0.4;0.4;;;;;;;14.1;100.0;101860;;;;
2022/10/27 07:28:02;;;;;;;0.4;0.4;;;;;;;14.1;100.0;101860;;;;
2022/10/27 07:29:00;;;;;;;0.4;0.4;;;;;;;14.3;100.0;101860;;;;
2022/10/27 07:30:00;;;;;;;0.4;0.4;;;;;;;14.3;100.0;101860;;;;
2022/10/27 07:31:00;;;;;;;0.4;0.4;;;;;;;14.2;100.0;101860;;;;
2022/10/27 07:32:00;;;;;;;0.4;0.4;;;;;;;14.2;100.0;101860;;;;
2022/10/27 07:33:00;;;;;;;0.4;0.4;;;;;;;14.4;100.0;101870;;;;
2022/10/27 07:34:00;;;;;;;0.4;0.4;;;;;;;14.4;100.0;101870;;;;
2022/10/27 07:35:00;;;;;;;0.4;0.4;;;;;;;14.3;100.0;101870;;;;
2022/10/27 07:36:00;;;;;;;0.4;0.4;;;;;;;14.3;100.0;101870;;;;
2022/10/27 07:37:00;;;;;;;0.4;0.4;;;;;;;14.3;100.0;101870;;;;
2022/10/27 07:38:00;;;;;;;0.4;0.4;;;;;;;14.3;100.0;101870;;;;
2022/10/27 07:39:00;;;;;;;0.4;0.4;;;;;;;14.3;100.0;101870;;;;
2022/10/27 07:40:00;;;;;;;0.4;0.4;;;;;;;14.3;100.0;101870;;;;
2022/10/27 07:41:00;;;;;;;0.4;0.4;;;;;;;14.3;100.0;101870;;;;
2022/10/27 07:42:00;;;;;;;0.4;0.4;;;;;;;14.3;100.0;101870;;;;
2022/10/27 07:43:08;;;;;;;0.4;0.4;;;;;;;14.4;100.0;101860;;;;
2022/10/27 07:44:00;;;;;;;0.4;0.4;;;;;;;14.4;100.0;101860;;;;
2022/10/27 07:45:01;;;;;;;0.4;0.4;;;;;;;14.3;100.0;101860;;;;
2022/10/27 07:46:00;;;;;;;0.4;0.4;;;;;;;14.3;100.0;101860;;;;
2022/10/27 07:47:00;;;;;;;0.4;0.4;;;;;;;14.4;100.0;101860;;;;
2022/10/27 07:48:00;;;;;;;0.4;0.4;;;;;;;14.4;100.0;101860;;;;
2022/10/27 07:49:00;;;;;;;0.4;0.4;;;;;;;14.4;100.0;101860;;;;
2022/10/27 07:50:00;;;;;;;0.4;0.4;;;;;;;14.4;100.0;101860;;;;
2022/10/27 07:51:00;;;;;;;0.4;0.4;;;;;;;14.3;100.0;101860;;;;
2022/10/27 07:52:00;;;;;;;0.4;0.4;;;;;;;14.3;100.0;101860;;;;
2022/10/27 07:53:00;;;;;;;0.4;0.4;;;;;;;14.4;100.0;101860;;;;
2022/10/27 07:54:00;;;;;;;0.4;0.4;;;;;;;14.4;100.0;101860;;;;
2022/10/27 07:55:00;;;;;;;0.4;0.4;;;;;;;14.4;100.0;101870;;;;
2022/10/27 07:56:01;;;;;;;0.4;0.4;;;;;;;14.4;100.0;101870;;;;
2022/10/27 07:57:00;;;;;;;0.4;0.4;;;;;;;14.4;100.0;101870;;;;
2022/10/27 07:58:01;;;;;;;0.4;0.4;;;;;;;14.4;100.0;101870;;;;
2022/10/27 07:59:00;;;;;;;0.4;0.4;;;;;;;14.6;100.0;101870;;;;
2022/10/27 08:00:00;;;;;;;0.4;0.4;;;;;;;14.6;100.0;101870;;;;
2022/10/27 08:01:02;;;;;;;0.4;0.4;;;;;;;14.5;100.0;101870;;;;
2022/10/27 08:02:00;;;;;;;0.4;0.4;;;;;;;14.5;100.0;101870;;;;
2022/10/27 08:03:00;;;;;;;0.4;0.4;;;;;;;14.7;100.0;101870;;;;
2022/10/27 08:04:00;;;;;;;0.4;0.4;;;;;;;14.7;100.0;101870;;;;
2022/10/27 08:05:00;;;;;;;0.4;0.4;;;;;;;14.8;100.0;101870;;;;
2022/10/27 08:06:02;;;;;;;0.4;0.4;;;;;;;14.8;100.0;101870;;;;
2022/10/27 08:07:00;;;;;;;0.4;0.4;;;;;;;14.8;100.0;101870;;;;
2022/10/27 08:08:02;;;;;;;0.4;0.4;;;;;;;14.8;100.0;101870;;;;
2022/10/27 08:09:00;;;;;;;0.4;0.4;;;;;;;14.9;100.0;101860;;;;
2022/10/27 08:10:00;;;;;;;0.4;0.4;;;;;;;14.9;100.0;101860;;;;
2022/10/27 08:11:00;;;;;;;0.4;0.4;;;;;;;15.0;100.0;101860;;;;
2022/10/27 08:12:00;;;;;;;0.4;0.4;;;;;;;15.0;100.0;101860;;;;
2022/10/27 08:13:00;;;;;;;0.4;0.4;;;;;;;15.1;100.0;101860;;;;
2022/10/27 08:14:00;;;;;;;0.4;0.4;;;;;;;15.1;100.0;101860;;;;
2022/10/27 08:15:00;;;;;;;0.4;0.4;;;;;;;15.2;100.0;101860;;;;
2022/10/27 08:16:00;;;;;;;0.4;0.4;;;;;;;15.2;100.0;101860;;;;
2022/10/27 08:17:05;;;;;;;0.4;0.4;;;;;;;15.2;100.0;101860;;;;
2022/10/27 08:18:02;;;;;;;0.4;0.4;;;;;;;15.2;100.0;101860;;;;
2022/10/27 08:19:00;;;;;;;0.4;0.4;;;;;;;15.2;100.0;101860;;;;
2022/10/27 08:20:00;;;;;;;0.4;0.4;;;;;;;15.2;100.0;101860;;;;
2022/10/27 08:21:02;;;;;;;0.4;0.4;;;;;;;15.3;100.0;101850;;;;
2022/10/27 08:22:00;;;;;;;0.4;0.4;;;;;;;15.3;100.0;101850;;;;
2022/10/27 08:23:01;;;;;;;0.4;0.4;;;;;;;15.3;100.0;101860;;;;
2022/10/27 08:24:00;;;;;;;0.4;0.4;;;;;;;15.3;100.0;101860;;;;
2022/10/27 08:25:02;;;;;;;0.4;0.4;;;;;;;15.4;100.0;101860;;;;
2022/10/27 08:26:00;;;;;;;0.4;0.4;;;;;;;15.4;100.0;101860;;;;
2022/10/27 08:27:00;;;;;;;0.5;0.5;;;;;;;15.4;100.0;101860;;;;
2022/10/27 08:28:00;;;;;;;0.5;0.5;;;;;;;15.4;100.0;101860;;;;
2022/10/27 08:29:00;;;;;;;0.5;0.5;;;;;;;15.5;100.0;101860;;;;
2022/10/27 08:30:00;;;;;;;0.5;0.5;;;;;;;15.5;100.0;101860;;;;